createdAt,value
2022-12-04T00:06:43.149Z,3.93
2022-12-04T00:16:43.261Z,3.95
2022-12-04T00:26:43.185Z,3.96
2022-12-04T00:36:43.184Z,3.97
2022-12-04T00:46:43.210Z,3.99
2022-12-04T00:56:43.235Z,3.99
2022-12-04T01:06:43.218Z,3.99
2022-12-04T01:16:43.286Z,4.00
2022-12-04T01:26:43.257Z,4.01
2022-12-04T01:36:43.270Z,4.01
2022-12-04T01:46:43.278Z,4.00
2022-12-04T01:56:43.335Z,4.00
2022-12-04T02:06:43.269Z,3.99
2022-12-04T02:16:43.554Z,3.96
2022-12-04T02:26:44.329Z,3.92
2022-12-04T02:36:44.308Z,3.89
2022-12-04T02:46:44.318Z,3.85
2022-12-04T02:56:44.415Z,3.82
2022-12-04T03:06:44.341Z,3.81
2022-12-04T03:16:44.448Z,3.80
2022-12-04T03:26:44.440Z,3.79
2022-12-04T03:36:44.469Z,3.77
2022-12-04T03:46:44.391Z,3.75
2022-12-04T03:56:44.441Z,3.70
2022-12-04T04:06:44.399Z,3.62
2022-12-04T04:17:02.787Z,3.53
2022-12-04T04:27:02.525Z,3.46
2022-12-04T04:37:02.431Z,3.39
2022-12-04T04:47:02.455Z,3.29
2022-12-04T04:57:02.509Z,3.10
2022-12-04T05:07:02.472Z,2.79
2022-12-04T05:17:05.482Z,2.44
2022-12-04T05:27:04.528Z,2.15
2022-12-04T05:37:04.519Z,1.97
2022-12-04T05:47:04.523Z,1.82
2022-12-04T05:57:04.547Z,1.75
2022-12-04T06:07:04.536Z,1.88
2022-12-04T06:17:04.581Z,2.15
2022-12-04T06:27:26.686Z,2.43
2022-12-04T06:37:06.610Z,2.66
2022-12-04T06:47:06.596Z,2.83
2022-12-04T06:57:06.624Z,2.95
2022-12-04T07:07:06.579Z,3.03
2022-12-04T07:17:06.735Z,3.07
2022-12-04T07:27:06.653Z,3.08
2022-12-04T07:37:07.057Z,3.08
2022-12-04T07:47:07.665Z,3.12
2022-12-04T07:57:07.750Z,3.18
2022-12-04T08:07:07.666Z,3.24
2022-12-04T08:17:07.752Z,3.32
2022-12-04T08:27:07.751Z,3.44
2022-12-04T08:37:07.732Z,3.56
2022-12-04T08:47:07.736Z,3.67
2022-12-04T08:57:07.743Z,3.76
2022-12-04T09:07:10.759Z,3.92
2022-12-04T09:17:10.912Z,4.14
2022-12-04T09:27:14.639Z,4.37
2022-12-04T09:37:12.799Z,4.58
2022-12-04T09:47:12.789Z,4.70
2022-12-04T09:57:12.812Z,4.74
2022-12-04T10:07:12.802Z,4.74
2022-12-04T10:17:12.858Z,4.71
2022-12-04T10:27:13.091Z,4.66
2022-12-04T10:37:12.886Z,4.70
2022-12-04T10:47:12.889Z,4.83
2022-12-04T10:57:13.511Z,4.99
2022-12-04T11:07:13.914Z,5.17
2022-12-04T11:17:13.891Z,5.33
2022-12-04T11:27:13.896Z,5.40
2022-12-04T11:37:13.997Z,5.41
2022-12-04T11:47:14.009Z,5.48
2022-12-04T11:57:13.967Z,5.58
2022-12-04T12:07:14.018Z,5.59
2022-12-04T12:17:13.966Z,5.52
2022-12-04T12:27:13.957Z,5.45
2022-12-04T12:37:13.996Z,5.41
2022-12-04T12:47:13.976Z,5.41
2022-12-04T12:57:14.325Z,5.42
2022-12-04T13:07:14.033Z,5.40
2022-12-04T13:17:14.030Z,5.38
2022-12-04T13:27:14.035Z,5.28
2022-12-04T13:37:14.087Z,5.17
2022-12-04T13:47:14.056Z,5.09
2022-12-04T13:57:14.073Z,4.99
2022-12-04T14:07:14.108Z,4.91
2022-12-04T14:17:14.261Z,4.85
2022-12-04T14:27:14.091Z,4.77
2022-12-04T14:37:14.134Z,4.69
2022-12-04T14:47:15.307Z,4.62
2022-12-04T14:57:15.148Z,4.56
2022-12-04T15:07:15.167Z,4.53
2022-12-04T15:17:15.805Z,4.53
2022-12-04T15:27:16.206Z,4.52
2022-12-04T15:37:16.227Z,4.52
2022-12-04T15:47:16.196Z,4.50
2022-12-04T15:57:16.268Z,4.51
2022-12-04T16:07:16.223Z,4.52
2022-12-04T16:17:16.938Z,4.53
2022-12-04T16:27:17.269Z,4.52
2022-12-04T16:37:17.300Z,4.51
2022-12-04T16:47:17.547Z,4.51
2022-12-04T16:57:17.321Z,4.52
2022-12-04T17:07:17.369Z,4.53
2022-12-04T17:17:17.341Z,4.55
2022-12-04T17:27:17.346Z,4.57
2022-12-04T17:37:17.338Z,4.58
2022-12-04T17:47:17.315Z,4.57
2022-12-04T17:57:17.450Z,4.56
2022-12-04T18:07:17.407Z,4.57
2022-12-04T18:17:19.290Z,4.58
2022-12-04T18:27:19.367Z,4.59
2022-12-04T18:37:19.439Z,4.59
2022-12-04T18:47:19.374Z,4.58
2022-12-04T18:57:19.440Z,4.56
2022-12-04T19:07:19.469Z,4.54
2022-12-04T19:17:20.450Z,4.52
2022-12-04T19:27:20.444Z,4.53
2022-12-04T19:37:20.486Z,4.55
2022-12-04T19:47:20.475Z,4.57
2022-12-04T19:57:23.553Z,4.59
2022-12-04T20:07:23.492Z,4.62
2022-12-04T20:17:24.418Z,4.67
2022-12-04T20:27:24.537Z,4.73
2022-12-04T20:37:24.606Z,4.79
2022-12-04T20:47:26.639Z,4.80
2022-12-04T20:57:26.562Z,4.77
2022-12-04T21:07:26.576Z,4.71
2022-12-04T21:17:26.581Z,4.61
2022-12-04T21:27:26.565Z,4.51
2022-12-04T21:37:26.702Z,4.42
2022-12-04T21:47:26.663Z,4.32
2022-12-04T21:57:26.632Z,4.24
2022-12-04T22:07:26.626Z,4.19
2022-12-04T22:17:26.677Z,4.20
2022-12-04T22:27:26.657Z,4.25
2022-12-04T22:37:26.681Z,4.29
2022-12-04T22:47:26.700Z,4.33
2022-12-04T22:57:27.396Z,4.39
2022-12-04T23:07:27.728Z,4.45
2022-12-04T23:17:27.753Z,4.51
2022-12-04T23:27:27.716Z,4.54
2022-12-04T23:37:27.747Z,4.53
2022-12-04T23:47:27.815Z,4.52
2022-12-04T23:57:27.779Z,4.49
